KASL/ASL METAR and TAF weather

Enter ICAO airport designator
Station Type Date Time Source
KASL METAR 2021/08/01 16:30 UTC NOAA

KASL 011630Z AUTO 26006KT 10SM SCT033 32/24 A3007 RMK AO1 T03220243


Station Type Date Time Source
KASL Decoded METAR 2021/08/01 16:30 UTC NOAA

Station name not available
Aug 01, 2021 - 12:30 PM EDT / 2021.08.01 1630 UTC
Wind: from the W (260 degrees) at 7 MPH (6 KT):0
Visibility: 10 mile(s):0
Sky conditions: partly cloudy
Temperature: 90.0 F (32.2 C)
Heat index: 101.5 F (38.6 C):1
Dew Point: 75.7 F (24.3 C)
Relative Humidity: 63%
Pressure (altimeter): 30.07 in. Hg (1018 hPa)
ob: KASL 011630Z AUTO 26006KT 10SM SCT033 32/24 A3007 RMK AO1 T03220243
cycle: 16

Station Type Date Time Source
KASL TAF UTC NOAA

Error!

Example: see airport list